createdAt,value
2022-11-16T00:02:05.422Z,9.76
2022-11-16T00:04:34.382Z,9.78
2022-11-16T00:07:03.863Z,9.78
2022-11-16T00:09:34.340Z,9.74
2022-11-16T00:12:04.142Z,9.82
2022-11-16T00:14:33.959Z,9.81
2022-11-16T00:17:03.597Z,9.77
2022-11-16T00:19:32.654Z,9.78
2022-11-16T00:22:01.911Z,9.79
2022-11-16T00:24:30.930Z,9.81
2022-11-16T00:27:01.670Z,9.82
2022-11-16T00:29:30.550Z,9.77
2022-11-16T00:31:59.844Z,9.74
2022-11-16T00:34:28.762Z,9.71
2022-11-16T00:36:58.091Z,9.74
2022-11-16T00:39:26.927Z,9.77
2022-11-16T00:41:56.288Z,9.72
2022-11-16T00:44:26.652Z,9.70
2022-11-16T00:46:55.919Z,9.69
2022-11-16T00:49:24.845Z,9.67
2022-11-16T00:51:54.147Z,9.68
2022-11-16T00:54:23.442Z,9.67
2022-11-16T00:56:52.740Z,9.67
2022-11-16T00:59:21.684Z,9.69
2022-11-16T01:01:52.414Z,9.71
2022-11-16T01:04:21.369Z,9.68
2022-11-16T01:06:50.717Z,9.65
2022-11-16T01:09:19.767Z,9.71
2022-11-16T01:12:06.649Z,9.66
2022-11-16T01:14:35.606Z,9.69
2022-11-16T01:17:06.267Z,9.63
2022-11-16T01:19:35.160Z,9.61
2022-11-16T01:22:04.551Z,9.64
2022-11-16T01:24:33.535Z,9.67
2022-11-16T01:27:02.808Z,9.66
2022-11-16T01:29:31.908Z,9.69
2022-11-16T01:32:01.309Z,9.67
2022-11-16T01:34:31.738Z,9.68
2022-11-16T01:37:01.124Z,9.73
2022-11-16T01:39:30.070Z,9.81
2022-11-16T01:41:59.455Z,9.76
2022-11-16T01:44:47.076Z,9.71
2022-11-16T01:47:17.079Z,9.67
2022-11-16T01:49:47.971Z,9.66
2022-11-16T01:52:18.661Z,9.68
2022-11-16T01:54:48.158Z,9.69
2022-11-16T01:57:18.109Z,9.67
2022-11-16T01:59:47.624Z,9.70
2022-11-16T02:02:17.012Z,9.77
2022-11-16T02:04:47.741Z,9.77
2022-11-16T02:07:18.028Z,9.72
2022-11-16T02:09:55.478Z,9.70
2022-11-16T02:12:30.704Z,9.68
2022-11-16T02:15:14.431Z,9.66
2022-11-16T02:17:45.590Z,9.64
2022-11-16T02:20:30.528Z,9.61
2022-11-16T02:23:05.901Z,9.59
2022-11-16T02:25:36.054Z,9.61
2022-11-16T02:28:09.997Z,9.62
2022-11-16T02:30:40.364Z,9.54
2022-11-16T02:33:10.363Z,9.51
2022-11-16T02:35:40.320Z,9.53
2022-11-16T02:38:11.346Z,9.51
2022-11-16T02:40:40.733Z,9.42
2022-11-16T02:43:10.682Z,9.40
2022-11-16T02:45:42.093Z,9.38
2022-11-16T02:48:12.629Z,9.38
2022-11-16T02:50:41.551Z,9.31
2022-11-16T02:53:10.812Z,9.31
2022-11-16T02:55:39.718Z,9.31
2022-11-16T02:58:10.619Z,9.27
2022-11-16T03:00:43.731Z,9.21
2022-11-16T03:03:18.106Z,9.21
2022-11-16T03:05:47.913Z,9.17
2022-11-16T03:08:19.267Z,9.15
2022-11-16T03:11:06.037Z,9.11
2022-11-16T03:13:35.466Z,9.05
2022-11-16T03:16:05.954Z,9.05
2022-11-16T03:18:36.862Z,9.05
2022-11-16T03:21:07.054Z,9.04
2022-11-16T03:23:36.356Z,8.98
2022-11-16T03:26:06.485Z,8.96
2022-11-16T03:28:36.633Z,8.99
2022-11-16T03:31:07.309Z,8.95
2022-11-16T03:33:38.707Z,8.92
2022-11-16T03:36:09.018Z,8.91
2022-11-16T03:38:38.570Z,8.97
2022-11-16T03:41:08.585Z,8.96
2022-11-16T03:43:38.135Z,8.90
2022-11-16T03:46:07.480Z,8.87
2022-11-16T03:48:38.665Z,8.87
2022-11-16T03:51:07.852Z,8.85
2022-11-16T03:53:37.131Z,8.84
2022-11-16T03:56:06.220Z,8.83
2022-11-16T03:58:35.655Z,8.80
2022-11-16T04:01:04.857Z,8.81
2022-11-16T04:03:34.073Z,8.75
2022-11-16T04:06:22.026Z,8.74
2022-11-16T04:09:08.407Z,8.82
2022-11-16T04:11:54.683Z,8.84
2022-11-16T04:14:42.006Z,8.81
2022-11-16T04:17:29.460Z,8.78
2022-11-16T04:20:16.329Z,8.70
2022-11-16T04:23:05.199Z,8.70
2022-11-16T04:25:35.386Z,8.73
2022-11-16T04:28:16.291Z,8.73
2022-11-16T04:31:03.356Z,8.74
2022-11-16T04:33:49.823Z,8.74
2022-11-16T04:36:36.483Z,8.81
2022-11-16T04:39:06.827Z,8.78
2022-11-16T04:41:53.545Z,8.78
2022-11-16T04:44:27.311Z,8.74
2022-11-16T04:47:07.229Z,8.73
2022-11-16T04:49:36.110Z,8.73
2022-11-16T04:52:05.492Z,8.73
2022-11-16T04:54:35.789Z,8.60
2022-11-16T04:57:05.005Z,8.61
2022-11-16T04:59:33.916Z,8.59
2022-11-16T05:02:10.809Z,8.63
2022-11-16T05:04:40.604Z,8.63
2022-11-16T05:07:11.246Z,8.58
2022-11-16T05:09:43.075Z,8.60
2022-11-16T05:12:14.889Z,8.56
2022-11-16T05:14:43.822Z,8.50
2022-11-16T05:17:13.307Z,8.54
2022-11-16T05:19:59.440Z,8.46
2022-11-16T05:22:28.873Z,8.41
2022-11-16T05:24:59.124Z,8.48
2022-11-16T05:27:28.693Z,8.47
2022-11-16T05:29:57.601Z,8.43
2022-11-16T05:32:27.801Z,8.38
2022-11-16T05:34:56.712Z,8.35
2022-11-16T05:37:26.773Z,8.37
2022-11-16T05:39:57.076Z,8.27
2022-11-16T05:42:27.818Z,8.32
2022-11-16T05:44:56.711Z,8.35
2022-11-16T05:47:25.944Z,8.31
2022-11-16T05:49:54.936Z,8.27
2022-11-16T05:52:24.233Z,8.26
2022-11-16T05:54:53.062Z,8.26
2022-11-16T05:57:22.218Z,8.22
2022-11-16T05:59:52.465Z,8.20
2022-11-16T06:02:21.762Z,8.19
2022-11-16T06:04:50.756Z,8.16
2022-11-16T06:07:20.092Z,8.14
2022-11-16T06:09:49.050Z,8.12
2022-11-16T06:12:18.319Z,8.13
2022-11-16T06:14:47.181Z,8.12
2022-11-16T06:17:17.884Z,8.07
2022-11-16T06:19:46.908Z,8.07
2022-11-16T06:22:16.195Z,8.07
2022-11-16T06:24:45.052Z,8.06
2022-11-16T06:27:14.291Z,7.96
2022-11-16T06:29:43.213Z,7.96
2022-11-16T06:32:12.460Z,7.97
2022-11-16T06:34:42.768Z,7.93
2022-11-16T06:37:12.047Z,7.85
2022-11-16T06:39:40.956Z,7.91
2022-11-16T06:42:10.220Z,7.84
2022-11-16T06:44:39.139Z,7.87
2022-11-16T06:47:08.453Z,7.82
2022-11-16T06:49:37.346Z,7.82
2022-11-16T06:52:08.055Z,7.80
2022-11-16T06:54:36.995Z,7.84
2022-11-16T06:57:06.308Z,7.74
2022-11-16T06:59:35.281Z,7.72
2022-11-16T07:02:04.646Z,7.76
2022-11-16T07:04:33.573Z,7.74
2022-11-16T07:07:02.874Z,7.76
2022-11-16T07:09:33.297Z,7.67
2022-11-16T07:12:02.682Z,7.66
2022-11-16T07:14:31.499Z,7.65
2022-11-16T07:17:05.220Z,7.64
2022-11-16T07:19:36.978Z,7.62
2022-11-16T07:22:06.503Z,7.54
2022-11-16T07:24:36.783Z,7.53
2022-11-16T07:27:06.537Z,7.55
2022-11-16T07:29:35.435Z,7.53
2022-11-16T07:32:04.656Z,7.49
2022-11-16T07:34:33.549Z,7.40
2022-11-16T07:37:02.855Z,7.41
2022-11-16T07:39:31.725Z,7.44
2022-11-16T07:42:02.449Z,7.40
2022-11-16T07:44:31.317Z,7.36
2022-11-16T07:47:01.869Z,7.35
2022-11-16T07:49:30.790Z,7.36
2022-11-16T07:52:00.143Z,7.34
2022-11-16T07:54:29.071Z,7.35
2022-11-16T07:56:58.275Z,7.41
2022-11-16T07:59:28.728Z,7.44
2022-11-16T08:01:59.453Z,7.39
2022-11-16T08:04:28.427Z,7.37
2022-11-16T08:06:57.806Z,7.37
2022-11-16T08:09:26.645Z,7.36
2022-11-16T08:11:55.856Z,7.35
2022-11-16T08:14:24.698Z,7.29
2022-11-16T08:16:55.344Z,7.31
2022-11-16T08:19:24.287Z,7.26
2022-11-16T08:21:53.465Z,7.28
2022-11-16T08:24:22.379Z,7.19
2022-11-16T08:26:51.816Z,7.15
2022-11-16T08:29:20.950Z,7.14
2022-11-16T08:31:50.234Z,7.07
2022-11-16T08:34:20.728Z,7.07
2022-11-16T08:36:50.124Z,6.97
2022-11-16T08:39:19.075Z,7.02
2022-11-16T08:41:48.448Z,6.94
2022-11-16T08:44:18.081Z,6.89
2022-11-16T08:46:49.290Z,6.92
2022-11-16T08:49:18.256Z,6.88
2022-11-16T08:51:48.965Z,6.81
2022-11-16T08:54:17.973Z,6.84
2022-11-16T08:56:47.224Z,6.84
2022-11-16T08:59:16.247Z,6.82
2022-11-16T09:01:45.496Z,6.79
2022-11-16T09:04:14.428Z,6.71
2022-11-16T09:06:43.598Z,6.79
2022-11-16T09:09:14.139Z,6.79
2022-11-16T09:11:43.448Z,6.75
2022-11-16T09:14:14.964Z,6.74
2022-11-16T09:16:44.219Z,6.71
2022-11-16T09:19:13.167Z,6.70
2022-11-16T09:21:42.677Z,6.79
2022-11-16T09:24:14.197Z,6.79
2022-11-16T09:26:43.448Z,6.74
2022-11-16T09:29:13.124Z,6.71
2022-11-16T09:31:42.456Z,6.72
2022-11-16T09:34:11.528Z,6.71
2022-11-16T09:36:40.918Z,6.66
2022-11-16T09:39:29.638Z,6.70
2022-11-16T09:42:06.663Z,6.71
2022-11-16T09:44:41.454Z,6.68
2022-11-16T09:47:15.029Z,6.74
2022-11-16T09:49:46.262Z,6.72
2022-11-16T09:52:19.639Z,6.67
2022-11-16T09:54:48.612Z,6.64
2022-11-16T09:57:24.819Z,6.59
2022-11-16T09:59:55.131Z,6.55
2022-11-16T10:02:25.259Z,6.49
2022-11-16T10:04:58.437Z,6.57
2022-11-16T10:07:30.326Z,6.50
2022-11-16T10:10:00.173Z,6.53
2022-11-16T10:12:31.003Z,6.41
2022-11-16T10:15:21.045Z,6.44
2022-11-16T10:17:59.968Z,6.50
2022-11-16T10:20:39.255Z,6.46
2022-11-16T10:23:10.146Z,6.43
2022-11-16T10:25:39.934Z,6.45
2022-11-16T10:28:14.850Z,6.46
2022-11-16T10:30:45.440Z,6.48
2022-11-16T10:33:15.956Z,6.49
2022-11-16T10:35:45.775Z,6.43
2022-11-16T10:38:15.277Z,6.43
2022-11-16T10:40:44.789Z,6.50
2022-11-16T10:43:16.267Z,6.46
2022-11-16T10:45:46.720Z,6.41
2022-11-16T10:48:17.440Z,6.46
2022-11-16T10:50:46.867Z,6.43
2022-11-16T10:53:16.387Z,6.44
2022-11-16T10:55:45.313Z,6.40
2022-11-16T10:58:15.923Z,6.42
2022-11-16T11:00:47.882Z,6.38
2022-11-16T11:03:19.807Z,6.41
2022-11-16T11:05:49.810Z,6.43
2022-11-16T11:08:26.045Z,6.37
2022-11-16T11:11:03.354Z,6.36
2022-11-16T11:13:35.011Z,6.36
2022-11-16T11:16:17.247Z,6.34
2022-11-16T11:18:54.994Z,6.31
2022-11-16T11:21:24.774Z,6.29
2022-11-16T11:24:06.036Z,6.20
2022-11-16T11:26:48.511Z,6.20
2022-11-16T11:29:21.997Z,6.15
2022-11-16T11:31:54.233Z,6.05
2022-11-16T11:34:24.387Z,6.06
2022-11-16T11:36:56.832Z,6.05
2022-11-16T11:39:28.345Z,6.02
2022-11-16T11:42:07.247Z,5.97
2022-11-16T11:44:49.865Z,5.96
2022-11-16T11:50:17.443Z,5.96
2022-11-16T11:52:57.606Z,6.02
2022-11-16T11:55:29.857Z,5.95
2022-11-16T11:57:59.376Z,5.93
2022-11-16T12:00:30.162Z,5.91
2022-11-16T12:03:23.165Z,5.89
2022-11-16T12:06:00.529Z,5.85
2022-11-16T12:08:33.545Z,5.85
2022-11-16T12:11:04.051Z,5.79
2022-11-16T12:13:45.705Z,5.77
2022-11-16T12:16:18.304Z,5.67
2022-11-16T12:18:51.547Z,5.66
2022-11-16T12:21:25.319Z,5.72
2022-11-16T12:24:04.598Z,5.73
2022-11-16T12:26:36.905Z,5.72
2022-11-16T12:29:08.512Z,5.66
2022-11-16T12:31:42.989Z,5.68
2022-11-16T12:34:13.564Z,5.69
2022-11-16T12:36:49.989Z,5.75
2022-11-16T12:39:21.786Z,5.72
2022-11-16T12:42:11.983Z,5.69
2022-11-16T12:44:50.354Z,5.68
2022-11-16T12:47:22.769Z,5.58
2022-11-16T12:50:06.616Z,5.53
2022-11-16T12:52:43.163Z,5.51
2022-11-16T12:55:25.846Z,5.55
2022-11-16T12:58:03.241Z,5.53
2022-11-16T13:00:32.812Z,5.55
2022-11-16T13:03:09.135Z,5.58
2022-11-16T13:05:41.878Z,5.46
2022-11-16T13:08:14.538Z,5.50
2022-11-16T13:10:45.661Z,5.50
2022-11-16T13:13:35.484Z,5.43
2022-11-16T13:16:05.572Z,5.46
2022-11-16T13:18:36.892Z,5.43
2022-11-16T13:21:06.526Z,5.46
2022-11-16T13:23:42.479Z,5.43
2022-11-16T13:26:12.453Z,5.41
2022-11-16T13:28:42.509Z,5.40
2022-11-16T13:31:12.141Z,5.46
2022-11-16T13:33:49.327Z,5.54
2022-11-16T13:36:39.427Z,5.39
2022-11-16T13:39:08.873Z,5.40
2022-11-16T13:41:40.574Z,5.40
2022-11-16T13:44:14.251Z,5.42
2022-11-16T13:46:55.662Z,5.41
2022-11-16T13:49:31.087Z,5.42
2022-11-16T13:52:17.292Z,5.41
2022-11-16T13:54:53.249Z,5.38
2022-11-16T13:57:24.121Z,5.40
2022-11-16T13:59:57.656Z,5.32
2022-11-16T14:02:30.339Z,5.36
2022-11-16T14:05:06.913Z,5.30
2022-11-16T14:07:42.959Z,5.29
2022-11-16T14:10:43.211Z,5.33
2022-11-16T14:13:27.556Z,5.32
2022-11-16T14:16:11.622Z,5.27
2022-11-16T14:18:42.019Z,5.25
2022-11-16T14:21:16.808Z,5.22
2022-11-16T14:23:52.226Z,5.24
2022-11-16T14:26:23.396Z,5.22
2022-11-16T14:29:10.016Z,5.20
2022-11-16T14:31:49.515Z,5.14
2022-11-16T14:34:20.433Z,5.13
2022-11-16T14:36:49.927Z,5.17
2022-11-16T14:39:26.046Z,5.11
2022-11-16T14:41:58.465Z,5.17
2022-11-16T14:44:33.770Z,5.10
2022-11-16T14:47:03.497Z,5.10
2022-11-16T14:49:35.428Z,5.18
2022-11-16T14:52:04.926Z,5.19
2022-11-16T14:54:35.530Z,5.13
2022-11-16T14:57:05.760Z,5.16
2022-11-16T14:59:34.745Z,5.21
2022-11-16T15:02:05.205Z,5.11
2022-11-16T15:04:35.646Z,5.10
2022-11-16T15:07:05.368Z,5.13
2022-11-16T15:09:34.770Z,5.15
2022-11-16T15:12:22.017Z,5.12
2022-11-16T15:14:51.753Z,5.16
2022-11-16T15:17:22.276Z,5.10
2022-11-16T15:19:56.563Z,5.10
2022-11-16T15:22:28.587Z,5.13
2022-11-16T15:24:58.105Z,5.09
2022-11-16T15:27:32.274Z,5.05
2022-11-16T15:30:02.210Z,5.13
2022-11-16T15:32:40.679Z,5.13
2022-11-16T15:35:15.552Z,5.13
2022-11-16T15:37:45.136Z,5.04
2022-11-16T15:40:14.391Z,5.01
2022-11-16T15:42:43.954Z,4.98
2022-11-16T15:45:17.317Z,4.95
2022-11-16T15:47:47.828Z,5.01
2022-11-16T15:50:18.325Z,4.99
2022-11-16T15:52:52.930Z,4.95
2022-11-16T15:55:23.921Z,4.93
2022-11-16T15:58:03.810Z,4.89
2022-11-16T16:00:33.172Z,4.93
2022-11-16T16:03:18.545Z,4.91
2022-11-16T16:05:47.725Z,4.95
2022-11-16T16:08:28.972Z,4.87
2022-11-16T16:11:12.877Z,4.86
2022-11-16T16:13:42.883Z,4.84
2022-11-16T16:16:13.192Z,4.88
2022-11-16T16:18:44.562Z,4.83
2022-11-16T16:21:14.254Z,4.85
2022-11-16T16:23:48.224Z,4.79
2022-11-16T16:26:17.510Z,4.77
2022-11-16T16:28:47.205Z,4.77
2022-11-16T16:31:18.724Z,4.75
2022-11-16T16:33:48.200Z,4.74
2022-11-16T16:36:17.308Z,4.70
2022-11-16T16:38:48.042Z,4.71
2022-11-16T16:41:23.702Z,4.80
2022-11-16T16:43:53.932Z,4.83
2022-11-16T16:46:22.904Z,4.72
2022-11-16T16:48:52.160Z,4.77
2022-11-16T16:51:21.124Z,4.68
2022-11-16T16:53:51.710Z,4.70
2022-11-16T16:56:20.871Z,4.72
2022-11-16T16:58:50.260Z,4.70
2022-11-16T17:01:21.325Z,4.76
2022-11-16T17:03:50.636Z,4.64
2022-11-16T17:06:20.139Z,4.59
2022-11-16T17:08:49.970Z,4.63
2022-11-16T17:11:24.877Z,4.64
2022-11-16T17:13:54.223Z,4.53
2022-11-16T17:16:23.547Z,4.57
2022-11-16T17:18:54.999Z,4.56
2022-11-16T17:21:23.950Z,4.56
2022-11-16T17:23:53.288Z,4.58
2022-11-16T17:26:24.840Z,4.55
2022-11-16T17:28:55.634Z,4.55
2022-11-16T17:31:25.077Z,4.60
2022-11-16T17:33:54.640Z,4.64
2022-11-16T17:36:28.347Z,4.68
2022-11-16T17:39:02.164Z,4.68
2022-11-16T17:41:32.591Z,4.72
2022-11-16T17:44:02.004Z,4.71
2022-11-16T17:46:30.892Z,4.67
2022-11-16T17:49:00.206Z,4.64
2022-11-16T17:51:29.948Z,4.72
2022-11-16T17:53:59.159Z,4.79
2022-11-16T17:56:28.425Z,4.74
2022-11-16T17:58:59.494Z,4.70
2022-11-16T18:01:28.748Z,4.70
2022-11-16T18:03:58.201Z,4.67
2022-11-16T18:06:27.127Z,4.67
2022-11-16T18:08:56.449Z,4.69
2022-11-16T18:11:26.243Z,4.72
2022-11-16T18:13:56.081Z,4.73
2022-11-16T18:16:30.940Z,4.72
2022-11-16T18:19:00.942Z,4.71
2022-11-16T18:21:29.995Z,4.72
2022-11-16T18:24:02.938Z,4.73
2022-11-16T18:26:31.841Z,4.71
2022-11-16T18:29:01.229Z,4.67
2022-11-16T18:31:33.049Z,4.73
2022-11-16T18:34:02.884Z,4.72
2022-11-16T18:36:31.824Z,4.67
2022-11-16T18:39:01.091Z,4.71
2022-11-16T18:41:30.019Z,4.74
2022-11-16T18:44:00.090Z,4.61
2022-11-16T18:46:34.075Z,4.67
2022-11-16T18:49:03.423Z,4.65
2022-11-16T18:51:33.267Z,4.71
2022-11-16T18:54:02.597Z,4.72
2022-11-16T18:56:31.651Z,4.66
2022-11-16T18:59:02.559Z,4.52
2022-11-16T19:01:31.798Z,4.67
2022-11-16T19:04:03.276Z,4.71
2022-11-16T19:06:32.677Z,4.70
2022-11-16T19:09:04.056Z,4.59
2022-11-16T19:11:33.070Z,4.63
2022-11-16T19:14:03.988Z,4.59
2022-11-16T19:16:32.980Z,4.63
2022-11-16T19:19:03.876Z,4.59
2022-11-16T19:21:32.838Z,4.59
2022-11-16T19:24:02.238Z,4.49
2022-11-16T19:26:31.757Z,4.64
2022-11-16T19:29:05.036Z,4.65
2022-11-16T19:31:34.603Z,4.63
2022-11-16T19:34:08.901Z,4.63
2022-11-16T19:36:38.153Z,4.59
2022-11-16T19:39:07.688Z,4.52
2022-11-16T19:41:36.717Z,4.63
2022-11-16T19:44:06.255Z,4.69
2022-11-16T19:46:36.000Z,4.63
2022-11-16T19:49:05.579Z,4.72
2022-11-16T19:51:36.268Z,4.71
2022-11-16T19:54:05.839Z,4.66
2022-11-16T19:56:34.889Z,4.78
2022-11-16T19:59:04.232Z,4.77
2022-11-16T20:01:33.261Z,4.75
2022-11-16T20:04:03.565Z,4.68
2022-11-16T20:06:33.382Z,4.78
2022-11-16T20:09:08.726Z,4.70
2022-11-16T20:11:38.641Z,4.70
2022-11-16T20:14:08.607Z,4.65
2022-11-16T20:16:40.961Z,4.65
2022-11-16T20:19:10.536Z,4.59
2022-11-16T20:21:40.084Z,4.61
2022-11-16T20:24:11.573Z,4.62
2022-11-16T20:26:42.367Z,4.60
2022-11-16T20:29:12.063Z,4.62
2022-11-16T20:31:42.959Z,4.71
2022-11-16T20:34:15.836Z,4.71
2022-11-16T20:36:48.621Z,4.68
2022-11-16T20:39:25.440Z,4.67
2022-11-16T20:41:54.424Z,4.77
2022-11-16T20:44:26.160Z,4.71
2022-11-16T20:46:54.992Z,4.78
2022-11-16T20:49:24.514Z,4.79
2022-11-16T20:51:53.476Z,4.80
2022-11-16T20:54:24.482Z,4.78
2022-11-16T20:56:54.791Z,4.76
2022-11-16T20:59:24.156Z,4.78
2022-11-16T21:01:55.904Z,4.84
2022-11-16T21:04:25.186Z,4.82
2022-11-16T21:06:54.178Z,4.85
2022-11-16T21:09:23.994Z,4.89
2022-11-16T21:12:11.864Z,4.90
2022-11-16T21:14:41.341Z,4.81
2022-11-16T21:17:10.289Z,4.84
2022-11-16T21:19:46.413Z,4.83
2022-11-16T21:22:32.262Z,4.87
2022-11-16T21:25:02.392Z,4.90
2022-11-16T21:27:32.926Z,4.81
2022-11-16T21:30:02.270Z,4.86
2022-11-16T21:32:31.908Z,4.81
2022-11-16T21:35:01.205Z,4.79
2022-11-16T21:37:30.129Z,4.74
2022-11-16T21:39:59.516Z,4.79
2022-11-16T21:42:28.573Z,4.79
2022-11-16T21:44:59.303Z,4.72
2022-11-16T21:47:29.268Z,4.79
2022-11-16T21:52:47.569Z,4.78
2022-11-16T21:55:16.976Z,4.74
2022-11-16T21:57:45.932Z,4.69
2022-11-16T22:00:17.380Z,4.78
2022-11-16T22:02:46.379Z,4.72
2022-11-16T22:05:33.275Z,4.71
2022-11-16T22:08:04.963Z,4.67
2022-11-16T22:10:34.481Z,4.71
2022-11-16T22:13:03.570Z,4.72
2022-11-16T22:15:34.313Z,4.66
2022-11-16T22:18:03.941Z,4.68
2022-11-16T22:20:33.291Z,4.68
2022-11-16T22:23:02.243Z,4.64
2022-11-16T22:25:31.700Z,4.67
2022-11-16T22:30:52.283Z,4.64
2022-11-16T22:33:21.647Z,4.63
2022-11-16T22:35:50.956Z,4.67
2022-11-16T22:38:22.193Z,4.60
2022-11-16T22:40:52.311Z,4.58
2022-11-16T22:43:21.553Z,4.64
2022-11-16T22:45:52.488Z,4.64
2022-11-16T22:48:21.431Z,4.58
2022-11-16T22:50:50.756Z,4.59
2022-11-16T22:53:19.774Z,4.57
2022-11-16T22:55:49.058Z,4.51
2022-11-16T22:58:18.827Z,4.57
2022-11-16T23:00:48.109Z,4.65
2022-11-16T23:03:18.489Z,4.60
2022-11-16T23:05:47.942Z,4.57
2022-11-16T23:08:17.074Z,4.54
2022-11-16T23:11:00.218Z,4.52
2022-11-16T23:13:46.473Z,4.56
2022-11-16T23:16:15.701Z,4.56
2022-11-16T23:18:46.011Z,4.55
2022-11-16T23:21:32.569Z,4.57
2022-11-16T23:24:21.363Z,4.44
2022-11-16T23:27:08.078Z,4.46
2022-11-16T23:29:37.163Z,4.56
2022-11-16T23:32:06.699Z,4.48
2022-11-16T23:34:38.808Z,4.48
2022-11-16T23:37:08.492Z,4.51
2022-11-16T23:39:37.447Z,4.52
2022-11-16T23:42:24.180Z,4.54
2022-11-16T23:44:53.298Z,4.51
2022-11-16T23:47:22.768Z,4.48
2022-11-16T23:49:53.276Z,4.62
2022-11-16T23:52:22.779Z,4.63
2022-11-16T23:54:51.992Z,4.59
2022-11-16T23:57:21.450Z,4.54
2022-11-16T23:59:50.506Z,4.53
